AirNav   Duncan Aviation - Near you to keep you flying
 
 966 users online  

OL32 Flat Rock Field Airport
Chouteau, Oklahoma, USA


FAA INFORMATION EFFECTIVE 03 NOVEMBER 2022

Location

FAA Identifier: OL32
Lat/Long: 36-04-17.8750N 095-21-45.8650W
36-04.297917N 095-21.764417W
36.0716319,-95.3627403
(estimated)
Elevation: 612 ft. / 187 m (estimated)
From city: 7 miles SSW of CHOUTEAU, OK
Time zone: UTC -6 (UTC -5 during Daylight Saving Time)
Zip code: 74467

Airport Operations

Airport use: Private use. Permission required prior to landing
Activation date: 12/2020
Control tower: no
ARTCC: KANSAS CITY CENTER
FSS: MC ALESTER FLIGHT SERVICE STATION
Attendance: 
Wind indicator: no
Segmented circle: no

Airport Communications

CTAF: 122.9
WX AWOS-3PT at H71 (9 nm N): 120.1 (918-476-0517)
WX AWOS-3P at GCM (14 nm NW): 119.925 (918-343-0184)
WX AWOS-3P at TQH (19 nm SE): 118.425 (918-453-2729)

Nearby radio navigation aids

VOR radial/distance  VOR name  Freq  Var
TULr102/21.9TULSA VORTAC114.4008E
OKMr039/33.4OKMULGEE VOR/DME114.9008E

Airport Services

Airframe service: NONE
Powerplant service: NONE
Bottled oxygen: NONE
Bulk oxygen: NONE

Runway Information

Runway 18/36

Dimensions: 2550 x 75 ft. / 777 x 23 m
Surface: turf, in fair condition
RUNWAY 18  RUNWAY 36
Latitude: 36-04.508167N36-04.087667N
Longitude: 095-21.764500W095-21.764333W
Elevation: 612.0 ft.602.0 ft.
Traffic pattern: leftright
Runway heading: 180 true360 true

Airport Ownership and Management from official FAA records

Ownership: Privately-owned
Owner: CHARLES E. BUSSEY
29340 E. 650 RD
CHOUTEAU, OK 74337
Phone 918-530-2611
Manager: BRANDON COBB
12375 S. 430 RD
CHOUTEAU, OK 74337
Phone 918-724-1418

Airport Operational Statistics

Aircraft based on the field: 1
Single engine airplanes: 1
    

Instrument Procedures

There are no published instrument procedures at OL32.

Some nearby airports with instrument procedures:

H68 - Hefner-Easley Airport (6 nm S)
H71 - Mid-America Industrial Airport (9 nm N)
KGCM - Claremore Regional Airport (14 nm NW)
KTQH - Tahlequah Municipal Airport (19 nm SE)
KMKO - Muskogee-Davis Regional Airport (25 nm S)
 
Loc | Ops | Rwys | IFR | FBO | Links
Com | Nav | Svcs | Stats | Notes
Aerial photo
No photo
 
Airport distance calculator
Flying to Flat Rock Field Airport? Find the distance to fly.

From to OL32

Sunrise and sunset
Times for 29-Nov-2022
 Local
(UTC-6)
 Zulu
(UTC)
Morning civil twilight06:4512:45
Sunrise07:1313:13
Sunset17:0723:07
Evening civil twilight17:3523:35

Current date and time
Zulu (UTC)  30-Nov-2022 02:01:05
Local (UTC-6)  29-Nov-2022 20:01:05
 
METAR
KH71 
9nm N 
300155Z AUTO 35019KT 10SM OVC023 03/M02 A3000 RMK AO2
KGCM 
15nm NW 
300155Z AUTO 32013G21KT 310V010 10SM OVC022 03/M02 A3000 RMK AO2
KTQH 
19nm SE 
300155Z AUTO 33012KT 10SM BKN022 04/M01 A2996 RMK AO2
TAF
KTUL 
26nm W 
291959Z 2920/3018 31019G28KT P6SM SKC FM292300 32018G27KT P6SM SCT030 FM300200 33015G25KT P6SM BKN120 FM300600 34010KT P6SM SKC
KRVS 
30nm W 
291959Z 2920/3018 30013G23KT P6SM SKC FM292300 31013G22KT P6SM SCT030 FM300200 33012G20KT P6SM BKN120 FM300600 35007KT P6SM SKC
NOTAMs
Click for the latest NOTAMs
NOTAMs are issued by the DoD/FAA and will open in a separate window not controlled by AirNav.

 

 
 

Would you like to see your business listed on this page?

 If your business provides an interesting product or service to pilots, flight crews, aircraft, or users of the Flat Rock Field Airport, you should consider listing it here.  To start the listing process, click on the button below
 
Add a business
 

Other Pages about Flat Rock Field Airport

Update a link
 
Copyright © AirNav, LLC. All rights reserved. Privacy Policy  Contact